sensor_id;sensor_type;location;lat;lon;timestamp;pressure;altitude;pressure_sealevel;temperature;humidity
71105;BME280;58760;48.716;8.962;2024-02-23T00:01:49;94659.84;;;4.79;100.00
71105;BME280;58760;48.716;8.962;2024-02-23T00:04:15;94672.72;;;4.74;100.00
71105;BME280;58760;48.716;8.962;2024-02-23T00:06:40;94670.56;;;4.78;100.00
71105;BME280;58760;48.716;8.962;2024-02-23T00:09:08;94660.28;;;4.83;100.00
71105;BME280;58760;48.716;8.962;2024-02-23T00:11:40;94655.66;;;4.85;100.00
71105;BME280;58760;48.716;8.962;2024-02-23T00:14:09;94655.50;;;4.86;100.00
71105;BME280;58760;48.716;8.962;2024-02-23T00:16:39;94666.53;;;4.82;100.00
71105;BME280;58760;48.716;8.962;2024-02-23T00:19:07;94669.81;;;4.84;100.00
71105;BME280;58760;48.716;8.962;2024-02-23T00:21:32;94685.50;;;4.77;100.00
71105;BME280;58760;48.716;8.962;2024-02-23T00:23:58;94694.38;;;4.91;100.00
71105;BME280;58760;48.716;8.962;2024-02-23T00:26:23;94692.16;;;4.94;100.00
71105;BME280;58760;48.716;8.962;2024-02-23T00:28:48;94694.63;;;4.96;100.00
71105;BME280;58760;48.716;8.962;2024-02-23T00:31:14;94698.50;;;4.85;100.00
71105;BME280;58760;48.716;8.962;2024-02-23T00:33:39;94711.41;;;4.80;100.00
71105;BME280;58760;48.716;8.962;2024-02-23T00:36:07;94712.94;;;4.89;100.00
71105;BME280;58760;48.716;8.962;2024-02-23T00:38:35;94711.19;;;4.96;100.00
71105;BME280;58760;48.716;8.962;2024-02-23T00:41:01;94712.94;;;5.04;100.00
71105;BME280;58760;48.716;8.962;2024-02-23T00:43:26;94701.50;;;4.97;100.00
71105;BME280;58760;48.716;8.962;2024-02-23T00:45:54;94693.06;;;5.01;100.00
71105;BME280;58760;48.716;8.962;2024-02-23T00:48:19;94686.19;;;5.00;100.00
71105;BME280;58760;48.716;8.962;2024-02-23T00:50:45;94697.69;;;4.99;100.00
71105;BME280;58760;48.716;8.962;2024-02-23T00:53:10;94697.41;;;4.94;100.00
71105;BME280;58760;48.716;8.962;2024-02-23T00:55:35;94704.22;;;4.89;100.00
71105;BME280;58760;48.716;8.962;2024-02-23T00:58:01;94712.84;;;4.97;100.00
71105;BME280;58760;48.716;8.962;2024-02-23T01:00:27;94717.53;;;5.02;100.00
71105;BME280;58760;48.716;8.962;2024-02-23T01:02:52;94710.84;;;4.99;100.00
71105;BME280;58760;48.716;8.962;2024-02-23T01:05:18;94697.06;;;4.83;100.00
71105;BME280;58760;48.716;8.962;2024-02-23T01:07:44;94717.72;;;5.00;100.00
71105;BME280;58760;48.716;8.962;2024-02-23T01:10:09;94720.16;;;5.02;100.00
71105;BME280;58760;48.716;8.962;2024-02-23T01:12:35;94709.84;;;5.00;100.00
71105;BME280;58760;48.716;8.962;2024-02-23T01:15:00;94699.88;;;5.10;100.00
71105;BME280;58760;48.716;8.962;2024-02-23T01:17:26;94691.25;;;5.02;100.00
71105;BME280;58760;48.716;8.962;2024-02-23T01:19:51;94684.28;;;4.94;100.00
71105;BME280;58760;48.716;8.962;2024-02-23T01:22:17;94703.03;;;4.91;100.00
71105;BME280;58760;48.716;8.962;2024-02-23T01:24:43;94698.88;;;4.97;100.00
71105;BME280;58760;48.716;8.962;2024-02-23T01:27:08;94697.88;;;4.98;100.00
71105;BME280;58760;48.716;8.962;2024-02-23T01:29:33;94703.03;;;4.91;100.00
71105;BME280;58760;48.716;8.962;2024-02-23T01:32:00;94715.38;;;4.91;100.00
71105;BME280;58760;48.716;8.962;2024-02-23T01:34:25;94708.75;;;4.95;100.00
71105;BME280;58760;48.716;8.962;2024-02-23T01:36:51;94725.69;;;4.92;100.00
71105;BME280;58760;48.716;8.962;2024-02-23T01:39:16;94719.44;;;4.93;100.00
71105;BME280;58760;48.716;8.962;2024-02-23T01:41:41;94710.31;;;4.89;100.00
71105;BME280;58760;48.716;8.962;2024-02-23T01:44:11;94720.28;;;4.94;100.00
71105;BME280;58760;48.716;8.962;2024-02-23T01:46:37;94717.06;;;4.98;100.00
71105;BME280;58760;48.716;8.962;2024-02-23T01:49:03;94724.97;;;4.98;100.00
71105;BME280;58760;48.716;8.962;2024-02-23T01:51:29;94718.97;;;5.04;100.00
71105;BME280;58760;48.716;8.962;2024-02-23T01:53:55;94719.53;;;5.00;100.00
71105;BME280;58760;48.716;8.962;2024-02-23T01:56:20;94729.13;;;5.07;100.00
71105;BME280;58760;48.716;8.962;2024-02-23T01:58:46;94715.03;;;4.94;100.00
71105;BME280;58760;48.716;8.962;2024-02-23T02:01:12;94719.09;;;4.96;100.00
71105;BME280;58760;48.716;8.962;2024-02-23T02:03:38;94717.72;;;5.00;100.00
71105;BME280;58760;48.716;8.962;2024-02-23T02:06:09;94703.50;;;4.95;100.00
71105;BME280;58760;48.716;8.962;2024-02-23T02:08:34;94711.44;;;5.01;100.00
71105;BME280;58760;48.716;8.962;2024-02-23T02:11:00;94715.47;;;4.97;100.00
71105;BME280;58760;48.716;8.962;2024-02-23T02:13:28;94726.69;;;5.06;100.00
71105;BME280;58760;48.716;8.962;2024-02-23T02:15:53;94728.50;;;5.05;100.00
71105;BME280;58760;48.716;8.962;2024-02-23T02:18:18;94718.19;;;5.04;100.00
71105;BME280;58760;48.716;8.962;2024-02-23T02:20:51;94732.47;;;5.01;100.00
71105;BME280;58760;48.716;8.962;2024-02-23T02:23:19;94733.66;;;4.99;100.00
71105;BME280;58760;48.716;8.962;2024-02-23T02:25:45;94733.41;;;4.94;100.00
71105;BME280;58760;48.716;8.962;2024-02-23T02:28:11;94732.75;;;4.92;100.00
71105;BME280;58760;48.716;8.962;2024-02-23T02:30:37;94725.06;;;4.90;100.00
71105;BME280;58760;48.716;8.962;2024-02-23T02:33:02;94734.56;;;4.91;100.00
71105;BME280;58760;48.716;8.962;2024-02-23T02:35:28;94723.97;;;4.85;100.00
71105;BME280;58760;48.716;8.962;2024-02-23T02:37:53;94731.94;;;4.91;100.00
71105;BME280;58760;48.716;8.962;2024-02-23T02:40:19;94731.22;;;4.83;100.00
71105;BME280;58760;48.716;8.962;2024-02-23T02:42:44;94709.13;;;4.77;100.00
71105;BME280;58760;48.716;8.962;2024-02-23T02:45:10;94706.88;;;4.74;100.00
71105;BME280;58760;48.716;8.962;2024-02-23T02:47:35;94709.88;;;4.71;100.00
71105;BME280;58760;48.716;8.962;2024-02-23T02:50:01;94711.94;;;4.75;100.00
71105;BME280;58760;48.716;8.962;2024-02-23T02:52:27;94718.63;;;4.78;100.00
71105;BME280;58760;48.716;8.962;2024-02-23T02:54:53;94710.50;;;4.73;100.00
71105;BME280;58760;48.716;8.962;2024-02-23T02:57:19;94705.88;;;4.75;100.00
71105;BME280;58760;48.716;8.962;2024-02-23T02:59:44;94715.38;;;4.76;100.00
71105;BME280;58760;48.716;8.962;2024-02-23T03:02:11;94703.78;;;4.70;100.00
71105;BME280;58760;48.716;8.962;2024-02-23T03:04:36;94695.00;;;4.63;100.00
71105;BME280;58760;48.716;8.962;2024-02-23T03:07:02;94680.25;;;4.62;100.00
71105;BME280;58760;48.716;8.962;2024-02-23T03:09:27;94682.34;;;4.67;100.00
71105;BME280;58760;48.716;8.962;2024-02-23T03:11:53;94688.19;;;4.69;100.00
71105;BME280;58760;48.716;8.962;2024-02-23T03:14:18;94699.06;;;4.66;100.00
71105;BME280;58760;48.716;8.962;2024-02-23T03:16:46;94688.41;;;4.67;100.00
71105;BME280;58760;48.716;8.962;2024-02-23T03:19:13;94687.84;;;4.72;100.00
71105;BME280;58760;48.716;8.962;2024-02-23T03:21:38;94687.66;;;4.59;100.00
71105;BME280;58760;48.716;8.962;2024-02-23T03:24:04;94703.78;;;4.56;100.00
71105;BME280;58760;48.716;8.962;2024-02-23T03:26:29;94714.19;;;4.49;100.00
71105;BME280;58760;48.716;8.962;2024-02-23T03:28:55;94706.78;;;4.53;100.00
71105;BME280;58760;48.716;8.962;2024-02-23T03:31:20;94710.41;;;4.37;100.00
71105;BME280;58760;48.716;8.962;2024-02-23T03:33:45;94688.50;;;4.45;100.00
71105;BME280;58760;48.716;8.962;2024-02-23T03:36:11;94684.13;;;4.66;100.00
71105;BME280;58760;48.716;8.962;2024-02-23T03:38:36;94696.56;;;4.58;100.00
71105;BME280;58760;48.716;8.962;2024-02-23T03:41:02;94701.97;;;4.56;100.00
71105;BME280;58760;48.716;8.962;2024-02-23T03:43:27;94706.50;;;4.48;100.00
71105;BME280;58760;48.716;8.962;2024-02-23T03:45:53;94694.91;;;4.57;100.00
71105;BME280;58760;48.716;8.962;2024-02-23T03:48:18;94693.03;;;4.51;100.00
71105;BME280;58760;48.716;8.962;2024-02-23T03:50:43;94716.28;;;4.54;100.00
71105;BME280;58760;48.716;8.962;2024-02-23T03:53:09;94714.47;;;4.40;100.00
71105;BME280;58760;48.716;8.962;2024-02-23T03:55:34;94725.22;;;4.30;100.00
71105;BME280;58760;48.716;8.962;2024-02-23T03:57:59;94734.28;;;4.42;100.00
71105;BME280;58760;48.716;8.962;2024-02-23T04:00:25;94727.88;;;4.45;100.00
71105;BME280;58760;48.716;8.962;2024-02-23T04:02:50;94719.72;;;4.40;100.00
71105;BME280;58760;48.716;8.962;2024-02-23T04:05:15;94704.97;;;4.39;100.00
71105;BME280;58760;48.716;8.962;2024-02-23T04:07:41;94710.50;;;4.29;100.00
71105;BME280;58760;48.716;8.962;2024-02-23T04:10:07;94706.94;;;4.37;100.00
71105;BME280;58760;48.716;8.962;2024-02-23T04:12:32;94721.00;;;4.29;100.00
71105;BME280;58760;48.716;8.962;2024-02-23T04:14:58;94708.13;;;4.34;100.00
71105;BME280;58760;48.716;8.962;2024-02-23T04:17:23;94710.50;;;4.29;100.00
71105;BME280;58760;48.716;8.962;2024-02-23T04:19:48;94727.69;;;4.32;100.00
71105;BME280;58760;48.716;8.962;2024-02-23T04:22:14;94710.66;;;4.28;100.00
71105;BME280;58760;48.716;8.962;2024-02-23T04:24:40;94716.16;;;4.33;100.00
71105;BME280;58760;48.716;8.962;2024-02-23T04:27:07;94704.47;;;4.20;100.00
71105;BME280;58760;48.716;8.962;2024-02-23T04:29:33;94713.00;;;4.22;100.00
71105;BME280;58760;48.716;8.962;2024-02-23T04:32:02;94709.00;;;4.27;100.00
71105;BME280;58760;48.716;8.962;2024-02-23T04:34:28;94712.69;;;4.03;100.00
71105;BME280;58760;48.716;8.962;2024-02-23T04:36:54;94712.81;;;4.09;100.00
71105;BME280;58760;48.716;8.962;2024-02-23T04:39:20;94716.91;;;3.89;100.00
71105;BME280;58760;48.716;8.962;2024-02-23T04:41:45;94716.59;;;4.07;100.00
71105;BME280;58760;48.716;8.962;2024-02-23T04:44:10;94718.06;;;4.09;100.00
71105;BME280;58760;48.716;8.962;2024-02-23T04:46:36;94707.50;;;4.32;100.00
71105;BME280;58760;48.716;8.962;2024-02-23T04:49:02;94712.00;;;4.23;100.00
71105;BME280;58760;48.716;8.962;2024-02-23T04:51:27;94716.91;;;3.89;100.00
71105;BME280;58760;48.716;8.962;2024-02-23T04:53:52;94710.63;;;3.76;100.00
71105;BME280;58760;48.716;8.962;2024-02-23T04:56:18;94707.13;;;3.83;100.00
71105;BME280;58760;48.716;8.962;2024-02-23T04:58:44;94708.06;;;3.67;100.00
71105;BME280;58760;48.716;8.962;2024-02-23T05:01:09;94698.47;;;3.60;100.00
71105;BME280;58760;48.716;8.962;2024-02-23T05:03:36;94699.53;;;3.88;100.00
71105;BME280;58760;48.716;8.962;2024-02-23T05:06:02;94708.34;;;3.95;100.00
71105;BME280;58760;48.716;8.962;2024-02-23T05:08:28;94691.28;;;3.77;100.00
71105;BME280;58760;48.716;8.962;2024-02-23T05:10:55;94683.56;;;3.75;100.00
71105;BME280;58760;48.716;8.962;2024-02-23T05:13:21;94703.41;;;3.55;100.00
71105;BME280;58760;48.716;8.962;2024-02-23T05:15:46;94706.91;;;3.47;100.00
71105;BME280;58760;48.716;8.962;2024-02-23T05:18:12;94705.50;;;3.37;100.00
71105;BME280;58760;48.716;8.962;2024-02-23T05:20:37;94719.59;;;3.36;100.00
71105;BME280;58760;48.716;8.962;2024-02-23T05:23:02;94716.97;;;3.58;100.00
71105;BME280;58760;48.716;8.962;2024-02-23T05:25:28;94720.84;;;3.48;100.00
71105;BME280;58760;48.716;8.962;2024-02-23T05:27:53;94718.09;;;3.41;100.00
71105;BME280;58760;48.716;8.962;2024-02-23T05:30:19;94727.81;;;3.55;100.00
71105;BME280;58760;48.716;8.962;2024-02-23T05:32:44;94725.84;;;3.35;100.00
71105;BME280;58760;48.716;8.962;2024-02-23T05:35:09;94736.63;;;3.32;100.00
71105;BME280;58760;48.716;8.962;2024-02-23T05:37:36;94732.56;;;3.29;100.00
71105;BME280;58760;48.716;8.962;2024-02-23T05:40:02;94740.69;;;3.42;100.00
71105;BME280;58760;48.716;8.962;2024-02-23T05:42:31;94744.19;;;3.35;100.00
71105;BME280;58760;48.716;8.962;2024-02-23T05:44:57;94739.94;;;3.26;100.00
71105;BME280;58760;48.716;8.962;2024-02-23T05:47:23;94745.88;;;3.20;100.00
71105;BME280;58760;48.716;8.962;2024-02-23T05:49:48;94745.13;;;3.11;100.00
71105;BME280;58760;48.716;8.962;2024-02-23T05:52:13;94755.59;;;3.11;100.00
71105;BME280;58760;48.716;8.962;2024-02-23T05:54:39;94759.69;;;3.13;100.00
71105;BME280;58760;48.716;8.962;2024-02-23T05:57:05;94759.72;;;3.05;100.00
71105;BME280;58760;48.716;8.962;2024-02-23T05:59:30;94763.97;;;3.06;100.00
71105;BME280;58760;48.716;8.962;2024-02-23T06:01:56;94765.91;;;3.12;100.00
71105;BME280;58760;48.716;8.962;2024-02-23T06:04:24;94763.13;;;3.06;100.00
71105;BME280;58760;48.716;8.962;2024-02-23T06:06:50;94766.91;;;3.11;100.00
71105;BME280;58760;48.716;8.962;2024-02-23T06:09:15;94763.47;;;3.11;100.00
71105;BME280;58760;48.716;8.962;2024-02-23T06:14:08;94779.94;;;3.20;100.00
71105;BME280;58760;48.716;8.962;2024-02-23T06:16:34;94786.19;;;3.49;100.00
71105;BME280;58760;48.716;8.962;2024-02-23T06:18:59;94786.41;;;3.71;100.00
71105;BME280;58760;48.716;8.962;2024-02-23T06:21:26;94780.63;;;3.75;100.00
71105;BME280;58760;48.716;8.962;2024-02-23T06:23:51;94781.03;;;3.64;100.00
71105;BME280;58760;48.716;8.962;2024-02-23T06:26:17;94782.41;;;3.52;100.00
71105;BME280;58760;48.716;8.962;2024-02-23T06:28:42;94792.19;;;3.58;100.00
71105;BME280;58760;48.716;8.962;2024-02-23T06:31:08;94797.34;;;3.74;100.00
71105;BME280;58760;48.716;8.962;2024-02-23T06:33:35;94790.41;;;3.81;100.00
71105;BME280;58760;48.716;8.962;2024-02-23T06:36:01;94804.97;;;3.61;100.00
71105;BME280;58760;48.716;8.962;2024-02-23T06:38:27;94794.34;;;3.54;100.00
71105;BME280;58760;48.716;8.962;2024-02-23T06:40:53;94789.06;;;3.85;100.00
71105;BME280;58760;48.716;8.962;2024-02-23T06:43:21;94789.38;;;3.37;100.00
71105;BME280;58760;48.716;8.962;2024-02-23T06:45:46;94789.66;;;3.42;100.00
71105;BME280;58760;48.716;8.962;2024-02-23T06:48:11;94785.91;;;3.44;100.00
71105;BME280;58760;48.716;8.962;2024-02-23T06:50:37;94792.38;;;3.56;100.00
71105;BME280;58760;48.716;8.962;2024-02-23T06:53:02;94791.84;;;3.61;100.00
71105;BME280;58760;48.716;8.962;2024-02-23T06:55:29;94786.44;;;3.32;100.00
71105;BME280;58760;48.716;8.962;2024-02-23T06:57:55;94788.81;;;3.19;100.00
71105;BME280;58760;48.716;8.962;2024-02-23T07:00:21;94792.72;;;3.23;100.00
71105;BME280;58760;48.716;8.962;2024-02-23T07:02:47;94800.22;;;3.34;100.00
71105;BME280;58760;48.716;8.962;2024-02-23T07:05:14;94813.38;;;3.48;100.00
71105;BME280;58760;48.716;8.962;2024-02-23T07:07:40;94809.34;;;3.68;100.00
71105;BME280;58760;48.716;8.962;2024-02-23T07:10:07;94807.53;;;3.69;100.00
71105;BME280;58760;48.716;8.962;2024-02-23T07:12:35;94794.75;;;3.43;100.00
71105;BME280;58760;48.716;8.962;2024-02-23T07:15:01;94802.31;;;3.69;100.00
71105;BME280;58760;48.716;8.962;2024-02-23T07:17:27;94808.00;;;3.73;100.00
71105;BME280;58760;48.716;8.962;2024-02-23T07:19:53;94807.94;;;3.81;100.00
71105;BME280;58760;48.716;8.962;2024-02-23T07:22:20;94817.41;;;3.90;100.00
71105;BME280;58760;48.716;8.962;2024-02-23T07:24:48;94819.38;;;3.88;100.00
71105;BME280;58760;48.716;8.962;2024-02-23T07:27:15;94816.41;;;4.13;100.00
71105;BME280;58760;48.716;8.962;2024-02-23T07:29:41;94812.53;;;4.09;100.00
71105;BME280;58760;48.716;8.962;2024-02-23T07:32:07;94812.28;;;3.96;100.00
71105;BME280;58760;48.716;8.962;2024-02-23T07:34:32;94818.00;;;3.77;100.00
71105;BME280;58760;48.716;8.962;2024-02-23T07:36:58;94816.00;;;3.79;100.00
71105;BME280;58760;48.716;8.962;2024-02-23T07:39:24;94809.47;;;3.98;100.00
71105;BME280;58760;48.716;8.962;2024-02-23T07:41:50;94800.31;;;3.94;100.00
71105;BME280;58760;48.716;8.962;2024-02-23T07:44:16;94799.84;;;4.13;100.00
71105;BME280;58760;48.716;8.962;2024-02-23T07:46:42;94798.50;;;4.17;100.00
71105;BME280;58760;48.716;8.962;2024-02-23T07:49:09;94792.56;;;4.00;100.00
71105;BME280;58760;48.716;8.962;2024-02-23T07:51:35;94785.13;;;4.12;100.00
71105;BME280;58760;48.716;8.962;2024-02-23T07:54:01;94782.16;;;3.92;100.00
71105;BME280;58760;48.716;8.962;2024-02-23T07:56:26;94781.38;;;4.06;100.00
71105;BME280;58760;48.716;8.962;2024-02-23T07:58:54;94792.56;;;4.00;100.00
71105;BME280;58760;48.716;8.962;2024-02-23T08:01:19;94802.06;;;4.01;100.00
71105;BME280;58760;48.716;8.962;2024-02-23T08:03:45;94798.34;;;4.18;100.00
71105;BME280;58760;48.716;8.962;2024-02-23T08:06:10;94803.84;;;4.09;100.00
71105;BME280;58760;48.716;8.962;2024-02-23T08:08:39;94815.78;;;4.11;100.00
71105;BME280;58760;48.716;8.962;2024-02-23T08:11:04;94815.19;;;4.01;100.00
71105;BME280;58760;48.716;8.962;2024-02-23T08:13:30;94813.06;;;3.74;100.00
71105;BME280;58760;48.716;8.962;2024-02-23T08:15:57;94817.66;;;3.80;100.00
71105;BME280;58760;48.716;8.962;2024-02-23T08:18:23;94813.63;;;3.92;100.00
71105;BME280;58760;48.716;8.962;2024-02-23T08:20:49;94817.31;;;3.83;100.00
71105;BME280;58760;48.716;8.962;2024-02-23T08:23:14;94817.66;;;3.80;100.00
71105;BME280;58760;48.716;8.962;2024-02-23T08:25:40;94809.00;;;3.94;100.00
71105;BME280;58760;48.716;8.962;2024-02-23T08:28:06;94804.06;;;3.99;100.00
71105;BME280;58760;48.716;8.962;2024-02-23T08:30:32;94808.25;;;4.08;100.00
71105;BME280;58760;48.716;8.962;2024-02-23T08:32:58;94810.31;;;3.98;100.00
71105;BME280;58760;48.716;8.962;2024-02-23T08:35:23;94802.16;;;3.93;100.00
71105;BME280;58760;48.716;8.962;2024-02-23T08:37:49;94802.47;;;3.90;100.00
71105;BME280;58760;48.716;8.962;2024-02-23T08:40:14;94797.47;;;3.81;100.00
71105;BME280;58760;48.716;8.962;2024-02-23T08:42:40;94794.56;;;3.98;100.00
71105;BME280;58760;48.716;8.962;2024-02-23T08:45:06;94792.91;;;3.97;100.00
71105;BME280;58760;48.716;8.962;2024-02-23T08:47:31;94794.72;;;3.97;100.00
71105;BME280;58760;48.716;8.962;2024-02-23T08:50:01;94797.06;;;3.92;100.00
71105;BME280;58760;48.716;8.962;2024-02-23T08:52:26;94788.81;;;4.17;100.00
71105;BME280;58760;48.716;8.962;2024-02-23T08:54:52;94784.00;;;4.44;100.00
71105;BME280;58760;48.716;8.962;2024-02-23T08:57:17;94765.78;;;4.42;100.00
71105;BME280;58760;48.716;8.962;2024-02-23T08:59:51;94769.44;;;4.41;100.00
71105;BME280;58760;48.716;8.962;2024-02-23T09:02:17;94768.66;;;4.33;100.00
71105;BME280;58760;48.716;8.962;2024-02-23T09:04:43;94770.59;;;4.39;100.00
71105;BME280;58760;48.716;8.962;2024-02-23T09:07:11;94773.38;;;4.22;100.00
71105;BME280;58760;48.716;8.962;2024-02-23T09:09:37;94772.06;;;4.41;100.00
71105;BME280;58760;48.716;8.962;2024-02-23T09:12:03;94776.38;;;4.34;100.00
71105;BME280;58760;48.716;8.962;2024-02-23T09:14:29;94778.19;;;4.34;100.00
71105;BME280;58760;48.716;8.962;2024-02-23T09:16:56;94779.22;;;4.47;100.00
71105;BME280;58760;48.716;8.962;2024-02-23T09:19:21;94779.69;;;4.51;100.00
71105;BME280;58760;48.716;8.962;2024-02-23T09:21:47;94774.44;;;4.51;100.00
71105;BME280;58760;48.716;8.962;2024-02-23T09:24:12;94783.44;;;4.34;100.00
71105;BME280;58760;48.716;8.962;2024-02-23T09:26:38;94784.72;;;4.52;100.00
71105;BME280;58760;48.716;8.962;2024-02-23T09:29:04;94779.94;;;4.56;100.00
71105;BME280;58760;48.716;8.962;2024-02-23T09:31:30;94788.28;;;4.59;100.00
71105;BME280;58760;48.716;8.962;2024-02-23T09:33:57;94784.41;;;4.70;100.00
71105;BME280;58760;48.716;8.962;2024-02-23T09:36:23;94786.25;;;4.84;100.00
71105;BME280;58760;48.716;8.962;2024-02-23T09:38:48;94785.31;;;5.06;100.00
71105;BME280;58760;48.716;8.962;2024-02-23T09:41:19;94787.84;;;5.14;100.00
71105;BME280;58760;48.716;8.962;2024-02-23T09:43:46;94783.88;;;5.04;100.00
71105;BME280;58760;48.716;8.962;2024-02-23T09:46:13;94776.97;;;5.32;100.00
71105;BME280;58760;48.716;8.962;2024-02-23T09:48:40;94777.50;;;5.42;100.00
71105;BME280;58760;48.716;8.962;2024-02-23T09:51:06;94780.72;;;5.59;100.00
71105;BME280;58760;48.716;8.962;2024-02-23T09:53:37;94775.03;;;5.41;100.00
71105;BME280;58760;48.716;8.962;2024-02-23T09:56:05;94784.78;;;5.61;100.00
71105;BME280;58760;48.716;8.962;2024-02-23T09:58:35;94783.50;;;5.36;100.00
71105;BME280;58760;48.716;8.962;2024-02-23T10:01:02;94777.75;;;5.47;100.00
71105;BME280;58760;48.716;8.962;2024-02-23T10:03:28;94778.72;;;5.61;100.00
71105;BME280;58760;48.716;8.962;2024-02-23T10:05:56;94783.97;;;5.61;100.00
71105;BME280;58760;48.716;8.962;2024-02-23T10:08:23;94773.69;;;5.66;100.00
71105;BME280;58760;48.716;8.962;2024-02-23T10:10:49;94765.72;;;5.95;100.00
71105;BME280;58760;48.716;8.962;2024-02-23T10:13:19;94764.41;;;6.06;100.00
71105;BME280;58760;48.716;8.962;2024-02-23T10:15:47;94771.75;;;6.10;100.00
71105;BME280;58760;48.716;8.962;2024-02-23T10:18:12;94777.34;;;6.01;100.00
71105;BME280;58760;48.716;8.962;2024-02-23T10:20:38;94778.03;;;6.09;100.00
71105;BME280;58760;48.716;8.962;2024-02-23T10:23:05;94781.38;;;6.24;100.00
71105;BME280;58760;48.716;8.962;2024-02-23T10:25:33;94776.94;;;6.46;100.00
71105;BME280;58760;48.716;8.962;2024-02-23T10:27:58;94771.72;;;6.31;100.00
71105;BME280;58760;48.716;8.962;2024-02-23T10:30:26;94779.94;;;6.43;100.00
71105;BME280;58760;48.716;8.962;2024-02-23T10:32:56;94775.88;;;6.68;100.00
71105;BME280;58760;48.716;8.962;2024-02-23T10:35:23;94764.88;;;6.93;100.00
71105;BME280;58760;48.716;8.962;2024-02-23T10:37:50;94764.25;;;6.91;100.00
71105;BME280;58760;48.716;8.962;2024-02-23T10:40:18;94760.75;;;6.83;100.00
71105;BME280;58760;48.716;8.962;2024-02-23T10:42:44;94765.06;;;6.91;100.00
71105;BME280;58760;48.716;8.962;2024-02-23T10:45:15;94766.25;;;7.23;100.00
71105;BME280;58760;48.716;8.962;2024-02-23T10:47:42;94761.47;;;7.40;100.00
71105;BME280;58760;48.716;8.962;2024-02-23T10:50:09;94752.22;;;7.16;100.00
71105;BME280;58760;48.716;8.962;2024-02-23T10:52:35;94761.41;;;7.26;100.00
71105;BME280;58760;48.716;8.962;2024-02-23T10:55:02;94757.94;;;7.26;100.00
71105;BME280;58760;48.716;8.962;2024-02-23T10:57:31;94758.94;;;7.18;100.00
71105;BME280;58760;48.716;8.962;2024-02-23T11:00:00;94763.44;;;7.24;100.00
71105;BME280;58760;48.716;8.962;2024-02-23T11:02:27;94749.22;;;7.25;100.00
71105;BME280;58760;48.716;8.962;2024-02-23T11:04:56;94744.09;;;7.65;100.00
71105;BME280;58760;48.716;8.962;2024-02-23T11:07:22;94733.16;;;7.81;100.00
71105;BME280;58760;48.716;8.962;2024-02-23T11:09:53;94736.06;;;7.93;100.00
71105;BME280;58760;48.716;8.962;2024-02-23T11:12:26;94732.38;;;7.87;100.00
71105;BME280;58760;48.716;8.962;2024-02-23T11:14:58;94728.72;;;7.81;100.00
71105;BME280;58760;48.716;8.962;2024-02-23T11:17:26;94729.53;;;7.95;100.00
71105;BME280;58760;48.716;8.962;2024-02-23T11:19:54;94735.25;;;8.12;100.00
71105;BME280;58760;48.716;8.962;2024-02-23T11:22:24;94730.38;;;8.09;100.00
71105;BME280;58760;48.716;8.962;2024-02-23T11:24:51;94728.94;;;8.26;100.00
71105;BME280;58760;48.716;8.962;2024-02-23T11:27:17;94732.41;;;8.13;100.00
71105;BME280;58760;48.716;8.962;2024-02-23T11:29:45;94725.09;;;7.96;100.00
71105;BME280;58760;48.716;8.962;2024-02-23T11:32:14;94723.47;;;8.01;100.00
71105;BME280;58760;48.716;8.962;2024-02-23T11:34:40;94725.16;;;8.48;100.00
71105;BME280;58760;48.716;8.962;2024-02-23T11:37:12;94717.38;;;8.14;100.00
71105;BME280;58760;48.716;8.962;2024-02-23T11:39:38;94713.84;;;7.74;100.00
71105;BME280;58760;48.716;8.962;2024-02-23T11:42:06;94724.47;;;8.20;100.00
71105;BME280;58760;48.716;8.962;2024-02-23T11:44:32;94727.56;;;8.30;100.00
71105;BME280;58760;48.716;8.962;2024-02-23T11:46:58;94721.06;;;8.32;100.00
71105;BME280;58760;48.716;8.962;2024-02-23T11:49:30;94711.88;;;8.81;100.00
71105;BME280;58760;48.716;8.962;2024-02-23T11:51:56;94718.34;;;8.98;100.00
71105;BME280;58760;48.716;8.962;2024-02-23T11:54:22;94704.28;;;9.04;100.00
71105;BME280;58760;48.716;8.962;2024-02-23T11:56:52;94706.75;;;8.99;100.00
71105;BME280;58760;48.716;8.962;2024-02-23T11:59:20;94699.25;;;8.89;100.00
71105;BME280;58760;48.716;8.962;2024-02-23T12:01:46;94697.97;;;9.05;100.00
71105;BME280;58760;48.716;8.962;2024-02-23T12:04:16;94693.69;;;9.04;100.00
71105;BME280;58760;48.716;8.962;2024-02-23T12:06:42;94694.50;;;9.11;100.00
71105;BME280;58760;48.716;8.962;2024-02-23T12:09:08;94686.56;;;9.11;100.00
71105;BME280;58760;48.716;8.962;2024-02-23T12:11:34;94687.34;;;9.18;100.00
71105;BME280;58760;48.716;8.962;2024-02-23T12:14:01;94682.78;;;9.38;100.00
71105;BME280;58760;48.716;8.962;2024-02-23T12:16:39;94687.47;;;9.36;100.00
71105;BME280;58760;48.716;8.962;2024-02-23T12:19:08;94685.66;;;9.30;100.00
71105;BME280;58760;48.716;8.962;2024-02-23T12:21:34;94686.66;;;9.42;100.00
71105;BME280;58760;48.716;8.962;2024-02-23T12:24:20;94679.69;;;9.48;100.00
71105;BME280;58760;48.716;8.962;2024-02-23T12:26:45;94678.19;;;9.14;100.00
71105;BME280;58760;48.716;8.962;2024-02-23T12:29:19;94675.78;;;9.13;100.00
71105;BME280;58760;48.716;8.962;2024-02-23T12:31:45;94675.25;;;8.78;100.00
71105;BME280;58760;48.716;8.962;2024-02-23T12:34:11;94689.34;;;8.46;100.00
71105;BME280;58760;48.716;8.962;2024-02-23T12:36:38;94692.81;;;8.39;100.00
71105;BME280;58760;48.716;8.962;2024-02-23T12:39:05;94686.72;;;8.13;100.00
71105;BME280;58760;48.716;8.962;2024-02-23T12:41:32;94687.50;;;8.26;100.00
71105;BME280;58760;48.716;8.962;2024-02-23T12:43:58;94684.25;;;8.18;100.00
71105;BME280;58760;48.716;8.962;2024-02-23T12:46:24;94695.41;;;8.13;100.00
71105;BME280;58760;48.716;8.962;2024-02-23T12:48:51;94688.72;;;7.98;100.00
71105;BME280;58760;48.716;8.962;2024-02-23T12:51:17;94696.59;;;7.78;100.00
71105;BME280;58760;48.716;8.962;2024-02-23T12:53:43;94704.16;;;8.07;100.00
71105;BME280;58760;48.716;8.962;2024-02-23T12:56:10;94683.44;;;8.17;100.00
71105;BME280;58760;48.716;8.962;2024-02-23T12:58:37;94690.53;;;8.10;100.00